Terminal Aerodrome Forecast
Issued by NWS

Home | Current Version | Previous Version | Text Only | Print | Product List | Glossary On
Versions: 1 2 3 4 5 6 7 8 9 10 11 12 13 14 15
300
FTUS46 KMTR 082340
TAFSTS
TAF
KSTS 082340Z 0900/0924 VRB04KT 1 1/2SM -SHRA BR OVC005
     FM090200 16004KT 2SM BR VCSH BKN008 OVC020
     FM090700 VRB02KT 1SM BR VCSH OVC005
     FM091000 00000KT 1/4SM FG VV003
     FM091800 VRB03KT 1SM BR OVC002
     FM091900 VRB02KT 1 1/2SM -RA BR OVC003=

USA.gov is the U.S. government's official web portal to all federal, state and local government web resources and services.